createdAt,value
2023-05-25T00:01:01.197Z,100.00
2023-05-25T00:03:48.523Z,100.00
2023-05-25T00:06:33.885Z,100.00
2023-05-25T00:09:19.449Z,100.00
2023-05-25T00:12:05.140Z,100.00
2023-05-25T00:14:50.463Z,100.00
2023-05-25T00:17:35.767Z,100.00
2023-05-25T00:20:21.118Z,100.00
2023-05-25T00:23:06.665Z,100.00
2023-05-25T00:25:51.945Z,100.00
2023-05-25T00:28:37.342Z,100.00
2023-05-25T00:31:22.878Z,100.00
2023-05-25T00:34:08.032Z,100.00
2023-05-25T00:36:54.563Z,100.00
2023-05-25T00:39:39.947Z,100.00
2023-05-25T00:42:25.413Z,100.00
2023-05-25T00:45:11.354Z,100.00
2023-05-25T00:47:57.743Z,100.00
2023-05-25T00:50:43.872Z,100.00
2023-05-25T00:53:29.406Z,100.00
2023-05-25T00:56:18.234Z,100.00
2023-05-25T00:59:06.438Z,100.00
2023-05-25T01:01:53.372Z,100.00
2023-05-25T01:04:43.033Z,100.00
2023-05-25T01:07:30.218Z,100.00
2023-05-25T01:10:16.765Z,100.00
2023-05-25T01:13:03.015Z,100.00
2023-05-25T01:15:49.724Z,100.00
2023-05-25T01:18:35.358Z,100.00
2023-05-25T01:21:35.009Z,100.00
2023-05-25T01:24:33.267Z,100.00
2023-05-25T01:27:27.893Z,100.00
2023-05-25T01:30:15.647Z,100.00
2023-05-25T01:33:01.724Z,100.00
2023-05-25T01:35:47.635Z,100.00
2023-05-25T01:38:33.783Z,100.00
2023-05-25T01:41:18.867Z,100.00
2023-05-25T01:44:05.037Z,100.00
2023-05-25T01:46:54.663Z,100.00
2023-05-25T01:50:07.659Z,100.00
2023-05-25T01:53:02.700Z,100.00
2023-05-25T01:55:55.524Z,100.00
2023-05-25T01:58:43.540Z,100.00
2023-05-25T02:01:30.988Z,100.00
2023-05-25T02:04:18.366Z,100.00
2023-05-25T02:07:04.598Z,100.00
2023-05-25T02:09:50.187Z,100.00
2023-05-25T02:12:35.448Z,100.00
2023-05-25T02:15:21.452Z,100.00
2023-05-25T02:18:06.898Z,100.00
2023-05-25T02:20:52.230Z,100.00
2023-05-25T02:23:37.825Z,100.00
2023-05-25T02:26:23.045Z,100.00
2023-05-25T02:29:08.547Z,100.00
2023-05-25T02:31:53.574Z,100.00
2023-05-25T02:34:39.014Z,100.00
2023-05-25T02:37:24.262Z,100.00
2023-05-25T02:40:10.344Z,100.00
2023-05-25T02:42:55.557Z,100.00
2023-05-25T02:45:40.947Z,100.00
2023-05-25T02:48:26.148Z,100.00
2023-05-25T02:51:11.494Z,100.00
2023-05-25T02:53:57.093Z,100.00
2023-05-25T02:56:42.593Z,100.00
2023-05-25T02:59:27.433Z,100.00
2023-05-25T03:02:12.820Z,100.00
2023-05-25T03:04:57.817Z,100.00
2023-05-25T03:07:43.492Z,100.00
2023-05-25T03:10:28.648Z,100.00
2023-05-25T03:13:13.922Z,100.00
2023-05-25T03:15:59.162Z,100.00
2023-05-25T03:18:44.508Z,100.00
2023-05-25T03:21:29.846Z,100.00
2023-05-25T03:24:15.253Z,100.00
2023-05-25T03:27:00.802Z,100.00
2023-05-25T03:29:49.511Z,100.00
2023-05-25T03:32:34.711Z,100.00
2023-05-25T03:35:20.062Z,100.00
2023-05-25T03:38:05.584Z,100.00
2023-05-25T03:40:50.834Z,100.00
2023-05-25T03:43:36.176Z,100.00
2023-05-25T03:46:21.632Z,100.00
2023-05-25T03:49:06.980Z,100.00
2023-05-25T03:51:52.013Z,100.00
2023-05-25T03:54:37.397Z,100.00
2023-05-25T03:57:22.750Z,100.00
2023-05-25T04:00:08.920Z,100.00
2023-05-25T04:02:54.130Z,100.00
2023-05-25T04:05:39.416Z,100.00
2023-05-25T04:08:25.030Z,100.00
2023-05-25T04:11:10.452Z,100.00
2023-05-25T04:13:55.413Z,100.00
2023-05-25T04:16:41.072Z,100.00
2023-05-25T04:19:26.358Z,100.00
2023-05-25T04:22:11.735Z,100.00
2023-05-25T04:24:57.061Z,100.00
2023-05-25T04:27:41.911Z,100.00
2023-05-25T04:30:27.009Z,100.00
2023-05-25T04:33:12.138Z,100.00
2023-05-25T04:35:57.570Z,100.00
2023-05-25T04:38:42.549Z,100.00
2023-05-25T04:41:28.170Z,100.00
2023-05-25T04:44:13.348Z,100.00
2023-05-25T04:46:59.258Z,100.00
2023-05-25T04:49:45.023Z,100.00
2023-05-25T04:52:30.581Z,100.00
2023-05-25T04:55:16.106Z,100.00
2023-05-25T04:58:01.274Z,100.00
2023-05-25T05:00:46.730Z,100.00
2023-05-25T05:03:32.256Z,100.00
2023-05-25T05:06:17.715Z,100.00
2023-05-25T05:09:03.024Z,100.00
2023-05-25T05:11:48.077Z,100.00
2023-05-25T05:14:33.210Z,100.00
2023-05-25T05:17:18.802Z,100.00
2023-05-25T05:20:04.400Z,100.00
2023-05-25T05:22:49.740Z,100.00
2023-05-25T05:25:35.086Z,100.00
2023-05-25T05:28:20.106Z,100.00
2023-05-25T05:31:05.636Z,100.00
2023-05-25T05:33:50.988Z,100.00
2023-05-25T05:36:48.857Z,100.00
2023-05-25T05:39:41.360Z,100.00
2023-05-25T05:42:26.609Z,100.00
2023-05-25T05:45:11.747Z,100.00
2023-05-25T05:47:57.112Z,100.00
2023-05-25T05:50:42.680Z,100.00
2023-05-25T05:53:27.769Z,100.00
2023-05-25T05:56:19.779Z,100.00
2023-05-25T05:59:04.653Z,100.00
2023-05-25T06:01:50.094Z,100.00
2023-05-25T06:04:35.445Z,100.00
2023-05-25T06:07:20.952Z,100.00
2023-05-25T06:10:06.772Z,100.00
2023-05-25T06:12:52.613Z,100.00
2023-05-25T06:15:38.021Z,100.00
2023-05-25T06:18:23.462Z,100.00
2023-05-25T06:21:10.654Z,100.00
2023-05-25T06:23:56.036Z,100.00
2023-05-25T06:26:41.244Z,99.28
2023-05-25T06:29:26.546Z,98.35
2023-05-25T06:32:11.978Z,97.91
2023-05-25T06:34:57.219Z,98.40
2023-05-25T06:37:42.553Z,99.22
2023-05-25T06:40:28.079Z,99.02
2023-05-25T06:43:13.556Z,98.48
2023-05-25T06:45:58.984Z,97.77
2023-05-25T06:48:44.747Z,96.67
2023-05-25T06:51:29.993Z,96.55
2023-05-25T06:54:14.999Z,95.68
2023-05-25T06:57:00.234Z,95.57
2023-05-25T06:59:45.662Z,95.84
2023-05-25T07:02:31.138Z,95.67
2023-05-25T07:05:16.482Z,95.58
2023-05-25T07:08:02.059Z,96.70
2023-05-25T07:10:49.206Z,96.17
2023-05-25T07:13:35.514Z,96.05
2023-05-25T07:16:21.106Z,96.35
2023-05-25T07:19:06.520Z,95.28
2023-05-25T07:21:52.081Z,94.87
2023-05-25T07:24:37.448Z,95.05
2023-05-25T07:27:22.283Z,95.25
2023-05-25T07:30:08.106Z,95.49
2023-05-25T07:32:53.351Z,95.73
2023-05-25T07:35:38.708Z,95.92
2023-05-25T07:38:23.920Z,95.50
2023-05-25T07:41:09.422Z,95.89
2023-05-25T07:43:54.936Z,96.50
2023-05-25T07:46:40.338Z,97.05
2023-05-25T07:49:25.789Z,97.47
2023-05-25T07:52:11.876Z,98.52
2023-05-25T07:54:57.050Z,98.40
2023-05-25T07:57:42.431Z,98.60
2023-05-25T08:00:27.822Z,97.65
2023-05-25T08:03:13.341Z,97.32
2023-05-25T08:05:58.746Z,96.94
2023-05-25T08:08:44.258Z,97.05
2023-05-25T08:11:29.268Z,95.34
2023-05-25T08:14:14.767Z,95.46
2023-05-25T08:17:00.259Z,95.06
2023-05-25T08:19:45.486Z,93.63
2023-05-25T08:22:30.971Z,93.04
2023-05-25T08:25:15.709Z,92.89
2023-05-25T08:28:01.144Z,92.76
2023-05-25T08:30:46.722Z,91.66
2023-05-25T08:33:32.054Z,90.96
2023-05-25T08:36:17.478Z,91.02
2023-05-25T08:39:03.472Z,90.64
2023-05-25T08:41:50.408Z,91.02
2023-05-25T08:44:36.706Z,91.14
2023-05-25T08:47:23.016Z,90.11
2023-05-25T08:50:12.446Z,89.96
2023-05-25T08:53:02.574Z,89.03
2023-05-25T08:55:49.783Z,89.45
2023-05-25T08:58:42.855Z,88.86
2023-05-25T09:01:33.075Z,87.87
2023-05-25T09:04:19.680Z,87.66
2023-05-25T09:07:10.273Z,87.54
2023-05-25T09:09:57.414Z,86.75
2023-05-25T09:12:42.875Z,86.45
2023-05-25T09:15:28.096Z,86.60
2023-05-25T09:18:13.384Z,86.59
2023-05-25T09:20:58.496Z,85.70
2023-05-25T09:23:44.360Z,84.77
2023-05-25T09:26:29.953Z,83.54
2023-05-25T09:29:15.744Z,82.66
2023-05-25T09:32:01.175Z,83.35
2023-05-25T09:34:47.380Z,83.87
2023-05-25T09:37:33.045Z,84.55
2023-05-25T09:40:18.171Z,83.33
2023-05-25T09:43:03.949Z,83.68
2023-05-25T09:45:52.503Z,84.09
2023-05-25T09:48:38.323Z,83.49
2023-05-25T09:51:23.665Z,84.35
2023-05-25T09:54:10.650Z,84.79
2023-05-25T09:56:56.161Z,83.93
2023-05-25T09:59:42.698Z,84.22
2023-05-25T10:02:28.337Z,84.09
2023-05-25T10:05:13.537Z,82.81
2023-05-25T10:08:01.530Z,82.60
2023-05-25T10:10:50.908Z,81.72
2023-05-25T10:13:37.157Z,80.91
2023-05-25T10:16:26.155Z,80.76
2023-05-25T10:19:16.164Z,80.97
2023-05-25T10:22:06.612Z,80.99
2023-05-25T10:25:02.657Z,78.82
2023-05-25T10:27:59.498Z,76.44
2023-05-25T10:30:46.213Z,75.17
2023-05-25T10:33:32.675Z,75.68
2023-05-25T10:36:20.323Z,75.64
2023-05-25T10:39:08.456Z,76.33
2023-05-25T10:41:55.021Z,77.39
2023-05-25T10:44:43.734Z,77.82
2023-05-25T10:47:30.353Z,75.88
2023-05-25T10:50:24.563Z,73.79
2023-05-25T10:53:13.400Z,74.30
2023-05-25T10:55:58.505Z,73.39
2023-05-25T10:58:46.091Z,75.36
2023-05-25T11:01:31.674Z,76.59
2023-05-25T11:04:16.874Z,77.73
2023-05-25T11:07:03.279Z,79.12
2023-05-25T11:09:58.221Z,79.85
2023-05-25T11:12:46.038Z,78.94
2023-05-25T11:15:31.407Z,76.14
2023-05-25T11:18:16.860Z,76.48
2023-05-25T11:21:27.239Z,77.11
2023-05-25T11:24:17.387Z,76.98
2023-05-25T11:27:02.540Z,77.16
2023-05-25T11:29:51.265Z,76.92
2023-05-25T11:32:36.387Z,76.23
2023-05-25T11:35:21.414Z,76.56
2023-05-25T11:38:07.868Z,77.40
2023-05-25T11:40:53.249Z,76.97
2023-05-25T11:43:38.978Z,76.35
2023-05-25T11:46:24.371Z,77.00
2023-05-25T11:49:09.633Z,76.72
2023-05-25T11:51:57.282Z,76.53
2023-05-25T11:54:42.962Z,76.01
2023-05-25T11:57:28.647Z,75.21
2023-05-25T12:00:24.962Z,75.58
2023-05-25T12:03:09.905Z,76.46
2023-05-25T12:05:55.403Z,77.10
2023-05-25T12:08:40.718Z,78.42
2023-05-25T12:11:34.933Z,78.30
2023-05-25T12:14:20.054Z,76.79
2023-05-25T12:17:06.277Z,77.25
2023-05-25T12:19:51.782Z,77.02
2023-05-25T12:22:39.166Z,76.95
2023-05-25T12:25:24.872Z,75.47
2023-05-25T12:28:15.029Z,74.30
2023-05-25T12:31:19.833Z,74.68
2023-05-25T12:34:16.663Z,74.12
2023-05-25T12:37:01.507Z,74.44
2023-05-25T12:39:48.029Z,74.00
2023-05-25T12:42:33.477Z,74.75
2023-05-25T12:45:18.657Z,72.88
2023-05-25T12:48:04.188Z,73.76
2023-05-25T12:50:59.056Z,73.04
2023-05-25T12:53:51.541Z,73.11
2023-05-25T12:56:54.169Z,73.22
2023-05-25T12:59:41.661Z,73.21
2023-05-25T13:02:27.190Z,73.20
2023-05-25T13:05:26.560Z,71.14
2023-05-25T13:08:12.251Z,70.47
2023-05-25T13:10:57.355Z,69.86
2023-05-25T13:13:42.801Z,69.61
2023-05-25T13:16:30.563Z,70.31
2023-05-25T13:19:16.185Z,69.74
2023-05-25T13:22:01.716Z,70.37
2023-05-25T13:24:47.428Z,68.48
2023-05-25T13:27:32.834Z,69.83
2023-05-25T13:30:18.724Z,69.80
2023-05-25T13:33:04.089Z,70.05
2023-05-25T13:35:49.450Z,70.59
2023-05-25T13:38:36.478Z,69.48
2023-05-25T13:41:22.203Z,68.39
2023-05-25T13:44:07.277Z,66.04
2023-05-25T13:46:52.667Z,66.27
2023-05-25T13:49:38.131Z,67.07
2023-05-25T13:52:24.047Z,68.63
2023-05-25T13:55:08.936Z,68.45
2023-05-25T13:57:54.011Z,67.51
2023-05-25T14:00:39.658Z,67.73
2023-05-25T14:03:24.716Z,67.38
2023-05-25T14:06:10.144Z,66.98
2023-05-25T14:08:55.353Z,67.04
2023-05-25T14:11:40.441Z,66.86
2023-05-25T14:14:32.185Z,66.44
2023-05-25T14:17:17.776Z,68.10
2023-05-25T14:20:04.261Z,67.92
2023-05-25T14:22:49.634Z,67.38
2023-05-25T14:25:34.638Z,66.15
2023-05-25T14:28:20.210Z,66.09
2023-05-25T14:31:05.643Z,65.81
2023-05-25T14:33:50.708Z,65.49
2023-05-25T14:36:36.039Z,65.69
2023-05-25T14:39:20.898Z,66.28
2023-05-25T14:42:06.873Z,64.93
2023-05-25T14:44:52.118Z,65.35
2023-05-25T14:47:37.675Z,66.19
2023-05-25T14:50:22.937Z,66.35
2023-05-25T14:53:08.371Z,67.08
2023-05-25T14:55:53.752Z,67.60
2023-05-25T14:58:39.124Z,64.79
2023-05-25T15:01:25.562Z,64.89
2023-05-25T15:04:11.040Z,65.81
2023-05-25T15:06:56.479Z,64.94
2023-05-25T15:09:42.499Z,64.72
2023-05-25T15:12:27.656Z,66.20
2023-05-25T15:15:13.066Z,67.74
2023-05-25T15:17:58.369Z,64.98
2023-05-25T15:20:43.770Z,63.85
2023-05-25T15:23:28.965Z,63.32
2023-05-25T15:26:14.331Z,63.91
2023-05-25T15:29:00.340Z,63.87
2023-05-25T15:31:45.897Z,64.32
2023-05-25T15:34:31.277Z,64.91
2023-05-25T15:37:16.543Z,65.32
2023-05-25T15:40:02.064Z,63.82
2023-05-25T15:42:47.582Z,63.90
2023-05-25T15:45:33.038Z,63.38
2023-05-25T15:48:18.543Z,63.67
2023-05-25T15:51:03.660Z,64.28
2023-05-25T15:53:49.282Z,64.05
2023-05-25T15:56:35.600Z,65.33
2023-05-25T15:59:20.563Z,64.77
2023-05-25T16:02:06.495Z,65.39
2023-05-25T16:04:51.832Z,62.66
2023-05-25T16:07:37.416Z,62.30
2023-05-25T16:10:22.829Z,61.96
2023-05-25T16:13:08.142Z,63.10
2023-05-25T16:15:53.718Z,63.38
2023-05-25T16:18:39.024Z,64.12
2023-05-25T16:21:24.558Z,64.45
2023-05-25T16:24:09.797Z,63.13
2023-05-25T16:26:55.818Z,62.37
2023-05-25T16:29:41.091Z,62.38
2023-05-25T16:32:26.306Z,62.79
2023-05-25T16:35:11.947Z,63.44
2023-05-25T16:37:56.975Z,63.91
2023-05-25T16:40:42.444Z,64.27
2023-05-25T16:43:27.776Z,63.42
2023-05-25T16:46:13.236Z,63.79
2023-05-25T16:48:58.832Z,64.18
2023-05-25T16:51:43.935Z,64.60
2023-05-25T16:54:29.675Z,64.54
2023-05-25T16:57:14.942Z,64.90
2023-05-25T17:00:00.269Z,65.61
2023-05-25T17:02:45.895Z,64.88
2023-05-25T17:05:31.257Z,63.72
2023-05-25T17:08:16.535Z,63.94
2023-05-25T17:11:03.317Z,62.97
2023-05-25T17:13:48.668Z,63.30
2023-05-25T17:16:34.250Z,63.88
2023-05-25T17:19:19.467Z,63.38
2023-05-25T17:22:05.559Z,65.46
2023-05-25T17:24:50.801Z,64.86
2023-05-25T17:27:36.726Z,64.58
2023-05-25T17:30:21.734Z,66.42
2023-05-25T17:33:07.080Z,65.31
2023-05-25T17:35:52.521Z,65.37
2023-05-25T17:38:37.815Z,65.89
2023-05-25T17:41:23.221Z,66.24
2023-05-25T17:44:08.610Z,65.95
2023-05-25T17:46:54.088Z,66.88
2023-05-25T17:49:39.168Z,66.49
2023-05-25T17:52:24.319Z,65.68
2023-05-25T17:55:09.613Z,65.86
2023-05-25T17:57:55.050Z,66.32
2023-05-25T18:00:40.712Z,67.04
2023-05-25T18:03:26.272Z,66.31
2023-05-25T18:06:11.402Z,66.77
2023-05-25T18:08:56.775Z,66.49
2023-05-25T18:11:42.245Z,66.04
2023-05-25T18:14:27.550Z,67.10
2023-05-25T18:17:13.506Z,69.00
2023-05-25T18:19:59.063Z,70.69
2023-05-25T18:22:44.400Z,69.68
2023-05-25T18:25:29.724Z,67.83
2023-05-25T18:28:15.332Z,67.22
2023-05-25T18:31:01.018Z,66.83
2023-05-25T18:33:46.761Z,66.53
2023-05-25T18:36:32.215Z,67.13
2023-05-25T18:39:17.639Z,66.75
2023-05-25T18:42:03.312Z,66.45
2023-05-25T18:44:48.948Z,66.37
2023-05-25T18:47:34.051Z,66.44
2023-05-25T18:50:19.338Z,66.73
2023-05-25T18:53:05.239Z,66.61
2023-05-25T18:55:50.836Z,66.82
2023-05-25T18:58:35.949Z,67.38
2023-05-25T19:01:21.252Z,67.14
2023-05-25T19:04:06.916Z,67.26
2023-05-25T19:06:52.768Z,67.81
2023-05-25T19:09:38.102Z,67.88
2023-05-25T19:12:23.431Z,68.01
2023-05-25T19:15:09.718Z,68.12
2023-05-25T19:17:54.698Z,68.50
2023-05-25T19:20:40.133Z,68.81
2023-05-25T19:23:25.195Z,69.48
2023-05-25T19:26:10.528Z,69.54
2023-05-25T19:28:57.787Z,69.55
2023-05-25T19:31:46.191Z,69.93
2023-05-25T19:34:31.817Z,70.03
2023-05-25T19:37:16.974Z,70.51
2023-05-25T19:40:02.554Z,71.11
2023-05-25T19:42:47.950Z,71.66
2023-05-25T19:45:33.422Z,72.12
2023-05-25T19:48:18.887Z,72.47
2023-05-25T19:51:04.452Z,72.75
2023-05-25T19:53:49.721Z,72.54
2023-05-25T19:56:35.059Z,72.88
2023-05-25T19:59:20.176Z,72.94
2023-05-25T20:02:05.710Z,73.31
2023-05-25T20:04:50.863Z,73.75
2023-05-25T20:07:36.541Z,74.00
2023-05-25T20:10:24.972Z,74.38
2023-05-25T20:13:10.503Z,74.75
2023-05-25T20:15:55.678Z,74.96
2023-05-25T20:18:40.991Z,75.55
2023-05-25T20:21:26.523Z,75.10
2023-05-25T20:24:11.761Z,75.36
2023-05-25T20:26:57.257Z,75.50
2023-05-25T20:29:42.593Z,75.85
2023-05-25T20:32:27.877Z,75.72
2023-05-25T20:35:15.774Z,75.85
2023-05-25T20:38:00.883Z,76.25
2023-05-25T20:40:46.234Z,76.13
2023-05-25T20:43:31.551Z,76.21
2023-05-25T20:46:17.122Z,76.40
2023-05-25T20:49:02.528Z,76.64
2023-05-25T20:51:47.906Z,76.78
2023-05-25T20:54:33.408Z,76.70
2023-05-25T20:57:19.195Z,77.15
2023-05-25T21:00:04.574Z,77.03
2023-05-25T21:02:50.131Z,77.21
2023-05-25T21:05:35.282Z,77.38
2023-05-25T21:08:23.119Z,77.69
2023-05-25T21:11:08.542Z,77.49
2023-05-25T21:13:53.818Z,77.59
2023-05-25T21:16:39.333Z,77.19
2023-05-25T21:19:24.601Z,77.75
2023-05-25T21:22:09.988Z,78.15
2023-05-25T21:24:55.476Z,78.93
2023-05-25T21:27:40.860Z,78.99
2023-05-25T21:30:26.186Z,79.64
2023-05-25T21:33:11.493Z,80.03
2023-05-25T21:35:56.960Z,80.45
2023-05-25T21:38:42.320Z,80.54
2023-05-25T21:41:28.105Z,80.77
2023-05-25T21:44:13.284Z,80.83
2023-05-25T21:46:58.766Z,81.29
2023-05-25T21:49:44.026Z,81.09
2023-05-25T21:52:29.407Z,81.23
2023-05-25T21:55:14.827Z,81.99
2023-05-25T21:58:00.191Z,82.09
2023-05-25T22:00:45.930Z,82.61
2023-05-25T22:03:31.189Z,82.55
2023-05-25T22:06:16.597Z,83.04
2023-05-25T22:09:02.068Z,83.40
2023-05-25T22:11:47.361Z,83.55
2023-05-25T22:14:32.728Z,84.28
2023-05-25T22:17:18.264Z,85.35
2023-05-25T22:20:07.920Z,85.85
2023-05-25T22:22:53.935Z,86.63
2023-05-25T22:25:39.283Z,86.78
2023-05-25T22:28:24.556Z,87.10
2023-05-25T22:31:10.570Z,87.29
2023-05-25T22:33:55.860Z,87.39
2023-05-25T22:36:41.307Z,87.80
2023-05-25T22:39:26.510Z,87.99
2023-05-25T22:42:12.071Z,88.20
2023-05-25T22:44:57.171Z,88.76
2023-05-25T22:47:42.613Z,89.09
2023-05-25T22:50:27.809Z,89.07
2023-05-25T22:53:13.093Z,89.51
2023-05-25T22:55:58.559Z,89.09
2023-05-25T22:58:43.964Z,89.66
2023-05-25T23:01:29.312Z,90.64
2023-05-25T23:04:14.756Z,90.97
2023-05-25T23:07:00.041Z,91.59
2023-05-25T23:09:45.398Z,91.62
2023-05-25T23:12:30.946Z,91.98
2023-05-25T23:15:16.214Z,92.27
2023-05-25T23:18:01.984Z,92.71
2023-05-25T23:20:47.528Z,92.65
2023-05-25T23:23:33.065Z,92.80
2023-05-25T23:26:18.390Z,93.17
2023-05-25T23:29:03.839Z,94.25
2023-05-25T23:31:49.410Z,94.66
2023-05-25T23:34:34.664Z,94.11
2023-05-25T23:37:20.010Z,93.53
2023-05-25T23:40:05.743Z,93.45
2023-05-25T23:42:51.307Z,94.35
2023-05-25T23:45:36.957Z,94.20
2023-05-25T23:48:22.188Z,94.79
2023-05-25T23:51:08.003Z,95.06
2023-05-25T23:53:53.372Z,95.72
2023-05-25T23:56:38.581Z,96.41
2023-05-25T23:59:24.029Z,96.62
